createdAt,value
2022-09-03T00:02:30.085Z,14.58
2022-09-03T00:05:40.558Z,14.47
2022-09-03T00:08:59.946Z,14.10
2022-09-03T00:12:26.379Z,14.12
2022-09-03T00:15:31.846Z,14.08
2022-09-03T00:18:35.106Z,14.05
2022-09-03T00:21:48.838Z,13.91
2022-09-03T00:24:52.804Z,13.87
2022-09-03T00:27:58.566Z,13.92
2022-09-03T00:31:16.408Z,13.83
2022-09-03T00:34:34.082Z,13.83
2022-09-03T00:37:38.138Z,13.83
2022-09-03T00:40:49.591Z,13.74
2022-09-03T00:44:01.109Z,13.75
2022-09-03T00:47:29.429Z,13.62
2022-09-03T00:50:47.965Z,13.60
2022-09-03T00:53:57.231Z,13.59
2022-09-03T00:57:12.145Z,13.68
2022-09-03T01:00:17.539Z,13.63
2022-09-03T01:03:55.620Z,13.60
2022-09-03T01:07:40.514Z,13.59
2022-09-03T01:11:12.014Z,13.50
2022-09-03T01:14:39.573Z,13.48
2022-09-03T01:17:54.519Z,13.47
2022-09-03T01:21:17.727Z,13.30
2022-09-03T01:24:32.260Z,13.23
2022-09-03T01:28:13.541Z,13.29
2022-09-03T01:31:29.598Z,13.20
2022-09-03T01:34:34.444Z,13.18
2022-09-03T01:37:58.507Z,13.18
2022-09-03T01:41:33.885Z,13.18
2022-09-03T01:45:01.733Z,13.13
2022-09-03T01:48:14.833Z,13.19
2022-09-03T01:51:22.183Z,13.19
2022-09-03T01:54:50.478Z,13.15
2022-09-03T01:58:09.297Z,13.11
2022-09-03T02:01:33.045Z,13.08
2022-09-03T02:04:36.561Z,13.07
2022-09-03T02:07:46.516Z,13.06
2022-09-03T02:10:53.525Z,13.11
2022-09-03T02:13:59.870Z,13.02
2022-09-03T02:17:03.094Z,12.85
2022-09-03T02:20:11.787Z,12.97
2022-09-03T02:23:14.886Z,13.10
2022-09-03T02:26:21.755Z,12.94
2022-09-03T02:29:25.055Z,12.87
2022-09-03T02:32:28.114Z,12.95
2022-09-03T02:35:30.297Z,12.98
2022-09-03T02:38:32.855Z,13.03
2022-09-03T02:41:35.282Z,13.17
2022-09-03T02:44:44.755Z,13.20
2022-09-03T02:47:50.066Z,13.25
2022-09-03T02:50:52.590Z,13.25
2022-09-03T02:53:54.707Z,13.23
2022-09-03T02:56:57.095Z,13.05
2022-09-03T02:59:59.252Z,13.10
2022-09-03T03:03:05.756Z,13.02
2022-09-03T03:06:08.513Z,12.96
2022-09-03T03:09:10.906Z,12.87
2022-09-03T03:12:13.246Z,12.99
2022-09-03T03:15:15.681Z,12.85
2022-09-03T03:18:17.837Z,12.85
2022-09-03T03:21:20.281Z,12.85
2022-09-03T03:24:22.442Z,12.83
2022-09-03T03:27:24.842Z,12.78
2022-09-03T03:30:27.931Z,12.69
2022-09-03T03:33:30.355Z,12.63
2022-09-03T03:36:34.169Z,12.68
2022-09-03T03:39:36.613Z,12.62
2022-09-03T03:42:39.194Z,12.46
2022-09-03T03:45:41.690Z,12.48
2022-09-03T03:48:43.850Z,12.48
2022-09-03T03:51:46.265Z,12.47
2022-09-03T03:54:50.133Z,12.49
2022-09-03T03:57:52.508Z,12.56
2022-09-03T04:00:54.744Z,12.62
2022-09-03T04:03:58.735Z,12.42
2022-09-03T04:07:00.933Z,12.44
2022-09-03T04:10:03.837Z,12.44
2022-09-03T04:13:05.972Z,12.41
2022-09-03T04:16:12.807Z,12.35
2022-09-03T04:19:15.078Z,12.39
2022-09-03T04:22:19.079Z,12.45
2022-09-03T04:25:21.230Z,12.46
2022-09-03T04:28:26.105Z,12.48
2022-09-03T04:31:28.437Z,12.48
2022-09-03T04:34:30.822Z,12.55
2022-09-03T04:37:33.245Z,12.59
2022-09-03T04:40:35.661Z,12.61
2022-09-03T04:43:38.211Z,12.58
2022-09-03T04:46:40.777Z,12.74
2022-09-03T04:49:42.879Z,12.77
2022-09-03T04:52:45.281Z,12.84
2022-09-03T04:55:47.448Z,12.99
2022-09-03T04:58:55.494Z,13.06
2022-09-03T05:01:57.650Z,13.31
2022-09-03T05:05:00.176Z,13.72
2022-09-03T05:08:02.800Z,14.02
2022-09-03T05:11:06.038Z,14.32
2022-09-03T05:14:11.818Z,14.59
2022-09-03T05:17:14.227Z,14.73
2022-09-03T05:20:16.475Z,15.19
2022-09-03T05:23:19.789Z,16.73
2022-09-03T05:26:27.472Z,19.60
2022-09-03T05:29:29.919Z,22.52
2022-09-03T05:32:32.877Z,24.20
2022-09-03T05:35:35.288Z,25.77
2022-09-03T05:38:38.186Z,26.97
2022-09-03T05:41:40.648Z,28.44
2022-09-03T05:44:43.802Z,28.01
2022-09-03T05:47:46.250Z,28.41
2022-09-03T05:50:49.684Z,28.98
2022-09-03T05:53:53.544Z,28.88
2022-09-03T05:56:55.673Z,29.48
2022-09-03T05:59:58.107Z,30.45
2022-09-03T06:03:00.373Z,31.66
2022-09-03T06:06:04.949Z,32.86
2022-09-03T06:09:10.797Z,32.38
2022-09-03T06:12:13.174Z,31.00
2022-09-03T06:15:16.483Z,31.44
2022-09-03T06:18:18.952Z,31.81
2022-09-03T06:21:21.211Z,32.39
2022-09-03T06:24:28.080Z,33.63
2022-09-03T06:27:30.723Z,33.16
2022-09-03T06:30:33.101Z,34.86
2022-09-03T06:33:37.394Z,34.30
2022-09-03T06:36:41.319Z,34.23
2022-09-03T06:39:43.522Z,34.62
2022-09-03T06:42:58.956Z,36.15
2022-09-03T06:46:04.216Z,36.27
2022-09-03T06:49:06.980Z,36.73
2022-09-03T06:52:09.187Z,37.29
2022-09-03T06:55:11.570Z,38.23
2022-09-03T06:58:13.698Z,37.62
2022-09-03T07:01:23.337Z,38.36
2022-09-03T07:04:27.121Z,39.48
2022-09-03T07:07:31.488Z,39.50
2022-09-03T07:10:37.389Z,38.40
2022-09-03T07:13:42.455Z,38.00
2022-09-03T07:16:46.110Z,37.34
2022-09-03T07:19:48.516Z,38.39
2022-09-03T07:22:50.672Z,38.28
2022-09-03T07:25:55.625Z,38.07
2022-09-03T07:28:59.004Z,38.15
2022-09-03T07:32:01.724Z,36.67
2022-09-03T07:35:04.143Z,35.22
2022-09-03T07:38:06.540Z,34.06
2022-09-03T07:41:09.646Z,33.18
2022-09-03T07:44:15.377Z,31.94
2022-09-03T07:47:21.574Z,30.85
2022-09-03T07:50:32.859Z,30.04
2022-09-03T07:53:35.272Z,28.60
2022-09-03T07:56:39.655Z,27.45
2022-09-03T07:59:42.110Z,27.09
2022-09-03T08:02:46.396Z,26.62
2022-09-03T08:05:49.321Z,25.96
2022-09-03T08:09:03.500Z,25.69
2022-09-03T08:12:07.430Z,25.33
2022-09-03T08:15:09.742Z,25.21
2022-09-03T08:18:12.404Z,25.17
2022-09-03T08:21:16.844Z,24.88
2022-09-03T08:24:21.846Z,25.04
2022-09-03T08:27:26.116Z,24.91
2022-09-03T08:30:28.658Z,24.82
2022-09-03T08:33:41.099Z,24.94
2022-09-03T08:36:43.487Z,24.82
2022-09-03T08:39:45.709Z,25.04
2022-09-03T08:43:17.354Z,24.49
2022-09-03T08:46:21.844Z,24.49
2022-09-03T08:49:55.648Z,24.50
2022-09-03T08:53:28.407Z,24.29
2022-09-03T08:56:33.467Z,24.00
2022-09-03T08:59:35.634Z,24.10
2022-09-03T09:02:50.251Z,24.36
2022-09-03T09:06:08.026Z,24.31
2022-09-03T09:09:25.834Z,24.39
2022-09-03T09:12:58.545Z,24.76
2022-09-03T09:16:21.944Z,24.56
2022-09-03T09:19:51.712Z,24.56
2022-09-03T09:23:32.590Z,24.61
2022-09-03T09:26:34.837Z,24.30
2022-09-03T09:29:38.916Z,24.41
2022-09-03T09:32:41.046Z,24.60
2022-09-03T09:35:44.467Z,24.37
2022-09-03T09:38:47.331Z,24.50
2022-09-03T09:42:01.291Z,24.48
2022-09-03T09:45:11.149Z,24.50
2022-09-03T09:48:21.162Z,24.58
2022-09-03T09:51:28.198Z,24.50
2022-09-03T09:54:30.676Z,24.69
2022-09-03T09:57:32.803Z,24.49
2022-09-03T10:00:37.709Z,24.44
2022-09-03T10:03:55.221Z,24.76
2022-09-03T10:07:19.627Z,24.90
2022-09-03T10:10:23.375Z,25.20
2022-09-03T10:13:35.179Z,25.07
2022-09-03T10:16:41.397Z,24.87
2022-09-03T10:20:17.241Z,24.43
2022-09-03T10:23:27.890Z,24.58
2022-09-03T10:26:32.272Z,24.79
2022-09-03T10:29:39.234Z,25.11
2022-09-03T10:33:09.761Z,25.10
2022-09-03T10:36:22.058Z,25.04
2022-09-03T10:39:51.632Z,24.97
2022-09-03T10:43:05.121Z,24.92
2022-09-03T10:46:14.706Z,25.33
2022-09-03T10:49:23.017Z,24.87
2022-09-03T10:52:40.954Z,24.90
2022-09-03T10:55:56.884Z,24.84
2022-09-03T10:59:54.871Z,25.04
2022-09-03T11:03:39.041Z,24.74
2022-09-03T11:06:53.998Z,24.63
2022-09-03T11:10:11.685Z,24.70
2022-09-03T11:13:43.332Z,24.49
2022-09-03T11:16:52.623Z,24.52
2022-09-03T11:20:07.451Z,24.58
2022-09-03T11:23:13.490Z,24.39
2022-09-03T11:26:19.680Z,24.55
2022-09-03T11:29:36.777Z,24.50
2022-09-03T11:32:55.906Z,24.67
2022-09-03T11:36:01.398Z,24.91
2022-09-03T11:39:34.532Z,25.08
2022-09-03T11:42:41.126Z,25.15
2022-09-03T11:45:44.365Z,25.44
2022-09-03T11:48:49.453Z,25.21
2022-09-03T11:51:59.333Z,25.23
2022-09-03T11:55:01.843Z,25.26
2022-09-03T11:58:27.171Z,25.29
2022-09-03T12:01:29.954Z,25.50
2022-09-03T12:04:42.785Z,25.35
2022-09-03T12:08:13.075Z,25.67
2022-09-03T12:11:44.986Z,25.77
2022-09-03T12:14:59.314Z,25.75
2022-09-03T12:18:21.572Z,25.88
2022-09-03T12:21:24.431Z,25.71
2022-09-03T12:24:33.620Z,25.29
2022-09-03T12:27:43.087Z,25.01
2022-09-03T12:30:46.833Z,25.04
2022-09-03T12:33:54.041Z,25.02
2022-09-03T12:36:56.618Z,25.35
2022-09-03T12:40:07.921Z,25.60
2022-09-03T12:46:40.072Z,26.09
2022-09-03T12:49:47.284Z,25.99
2022-09-03T12:53:01.014Z,25.62
2022-09-03T12:56:03.699Z,25.73
2022-09-03T12:59:11.464Z,25.53
2022-09-03T13:02:26.235Z,25.52
2022-09-03T13:05:45.190Z,25.30
2022-09-03T13:08:52.243Z,25.31
2022-09-03T13:11:55.491Z,25.49
2022-09-03T13:14:58.000Z,25.56
2022-09-03T13:18:11.210Z,25.70
2022-09-03T13:21:20.867Z,26.15
2022-09-03T13:24:27.452Z,26.20
2022-09-03T13:27:37.630Z,26.20
2022-09-03T13:31:02.374Z,26.25
2022-09-03T13:34:21.731Z,26.32
2022-09-03T13:37:42.429Z,26.12
2022-09-03T13:40:55.505Z,26.15
2022-09-03T13:44:05.604Z,25.89
2022-09-03T13:47:36.268Z,25.83
2022-09-03T13:50:45.049Z,25.85
2022-09-03T13:53:54.634Z,25.65
2022-09-03T13:57:21.895Z,25.56
2022-09-03T14:00:31.888Z,25.23
2022-09-03T14:03:52.537Z,25.16
2022-09-03T14:07:02.908Z,25.11
2022-09-03T14:10:38.124Z,24.94
2022-09-03T14:14:00.364Z,24.84
2022-09-03T14:17:10.440Z,24.98
2022-09-03T14:20:20.534Z,24.84
2022-09-03T14:23:35.576Z,24.88
2022-09-03T14:26:40.026Z,24.90
2022-09-03T14:29:52.954Z,24.85
2022-09-03T14:33:10.116Z,24.86
2022-09-03T14:36:30.210Z,24.82
2022-09-03T14:39:38.164Z,24.93
2022-09-03T14:43:08.459Z,24.94
2022-09-03T14:46:34.454Z,25.00
2022-09-03T14:49:51.681Z,24.99
2022-09-03T14:53:06.219Z,24.59
2022-09-03T14:56:46.615Z,24.38
2022-09-03T15:00:07.365Z,24.29
2022-09-03T15:03:35.014Z,24.35
2022-09-03T15:07:07.230Z,24.36
2022-09-03T15:10:32.888Z,24.31
2022-09-03T15:13:45.710Z,24.26
2022-09-03T15:17:01.445Z,24.17
2022-09-03T15:20:28.538Z,24.02
2022-09-03T15:24:05.072Z,23.90
2022-09-03T15:27:33.286Z,23.86
2022-09-03T15:30:49.538Z,23.83
2022-09-03T15:34:04.279Z,23.89
2022-09-03T15:37:32.932Z,23.89
2022-09-03T15:40:42.789Z,23.75
2022-09-03T15:43:49.657Z,23.66
2022-09-03T15:47:05.256Z,23.52
2022-09-03T15:50:40.200Z,23.60
2022-09-03T15:54:03.395Z,23.54
2022-09-03T15:57:12.361Z,23.46
2022-09-03T16:00:21.397Z,23.37
2022-09-03T16:03:46.818Z,23.38
2022-09-03T16:07:04.147Z,23.30
2022-09-03T16:10:26.337Z,23.23
2022-09-03T16:14:05.787Z,23.15
2022-09-03T16:17:23.473Z,23.06
2022-09-03T16:20:31.638Z,22.97
2022-09-03T16:24:17.262Z,22.85
2022-09-03T16:27:32.622Z,22.84
2022-09-03T16:30:49.791Z,22.67
2022-09-03T16:33:57.848Z,22.55
2022-09-03T16:37:18.514Z,22.42
2022-09-03T16:40:46.656Z,22.31
2022-09-03T16:43:56.792Z,22.21
2022-09-03T16:47:15.700Z,22.09
2022-09-03T16:50:59.411Z,21.94
2022-09-03T16:54:12.554Z,21.73
2022-09-03T16:57:33.628Z,21.54
2022-09-03T17:01:18.336Z,21.38
2022-09-03T17:04:58.125Z,21.18
2022-09-03T17:08:06.886Z,21.01
2022-09-03T17:11:36.985Z,20.84
2022-09-03T17:15:02.871Z,20.69
2022-09-03T17:18:17.735Z,20.52
2022-09-03T17:21:35.100Z,20.37
2022-09-03T17:24:48.086Z,20.27
2022-09-03T17:28:07.556Z,20.14
2022-09-03T17:31:22.117Z,20.01
2022-09-03T17:34:39.180Z,19.81
2022-09-03T17:37:58.195Z,19.69
2022-09-03T17:41:06.369Z,19.58
2022-09-03T17:44:33.841Z,19.58
2022-09-03T17:47:42.316Z,19.51
2022-09-03T17:51:03.456Z,19.49
2022-09-03T17:54:17.603Z,19.47
2022-09-03T17:57:32.789Z,19.43
2022-09-03T18:00:45.789Z,19.32
2022-09-03T18:03:57.498Z,19.27
2022-09-03T18:07:23.617Z,19.18
2022-09-03T18:10:34.033Z,19.16
2022-09-03T18:13:57.838Z,19.08
2022-09-03T18:17:12.858Z,19.01
2022-09-03T18:20:34.423Z,18.93
2022-09-03T18:24:11.298Z,18.80
2022-09-03T18:27:46.337Z,18.72
2022-09-03T18:31:07.131Z,18.68
2022-09-03T18:34:28.110Z,18.62
2022-09-03T18:37:48.915Z,18.56
2022-09-03T18:41:30.890Z,18.43
2022-09-03T18:45:21.441Z,18.35
2022-09-03T18:49:01.766Z,18.31
2022-09-03T18:52:44.524Z,18.20
2022-09-03T18:56:16.641Z,18.14
2022-09-03T19:00:02.766Z,18.11
2022-09-03T19:04:01.458Z,18.04
2022-09-03T19:07:28.043Z,17.98
2022-09-03T19:11:06.052Z,17.70
2022-09-03T19:14:36.467Z,17.74
2022-09-03T19:18:26.563Z,17.69
2022-09-03T19:21:59.932Z,17.64
2022-09-03T19:25:31.188Z,17.62
2022-09-03T19:28:59.294Z,17.61
2022-09-03T19:32:27.751Z,17.57
2022-09-03T19:36:00.106Z,17.52
2022-09-03T19:39:56.553Z,17.49
2022-09-03T19:43:26.887Z,17.33
2022-09-03T19:47:03.691Z,17.29
2022-09-03T19:50:35.792Z,17.31
2022-09-03T19:53:56.592Z,17.17
2022-09-03T19:57:17.414Z,17.05
2022-09-03T20:00:38.207Z,17.05
2022-09-03T20:04:01.106Z,16.93
2022-09-03T20:07:27.071Z,16.94
2022-09-03T20:10:29.495Z,16.97
2022-09-03T20:13:52.816Z,16.98
2022-09-03T20:17:01.434Z,16.93
2022-09-03T20:20:06.647Z,16.84
2022-09-03T20:23:15.823Z,16.74
2022-09-03T20:26:30.717Z,16.79
2022-09-03T20:29:59.007Z,16.79
2022-09-03T20:33:22.957Z,16.82
2022-09-03T20:36:43.999Z,16.88
2022-09-03T20:40:11.722Z,16.85
2022-09-03T20:43:46.205Z,16.83
2022-09-03T20:46:59.970Z,16.60
2022-09-03T20:50:11.288Z,16.47
2022-09-03T20:53:26.846Z,16.40
2022-09-03T20:56:40.297Z,16.46
2022-09-03T20:59:51.497Z,16.51
2022-09-03T21:03:17.295Z,16.52
2022-09-03T21:06:41.373Z,16.30
2022-09-03T21:09:48.523Z,16.29
2022-09-03T21:13:11.594Z,16.25
2022-09-03T21:16:51.759Z,16.25
2022-09-03T21:19:56.570Z,16.24
2022-09-03T21:23:23.651Z,16.23
2022-09-03T21:26:29.239Z,16.21
2022-09-03T21:29:43.037Z,16.12
2022-09-03T21:32:54.831Z,16.12
2022-09-03T21:36:06.979Z,16.13
2022-09-03T21:39:21.684Z,16.09
2022-09-03T21:42:43.649Z,16.07
2022-09-03T21:46:19.315Z,16.06
2022-09-03T21:49:58.117Z,15.97
2022-09-03T21:53:09.520Z,16.03
2022-09-03T21:56:50.877Z,16.07
2022-09-03T22:00:12.662Z,16.07
2022-09-03T22:03:14.724Z,15.95
2022-09-03T22:06:28.739Z,15.97
2022-09-03T22:09:39.451Z,16.00
2022-09-03T22:13:09.261Z,15.99
2022-09-03T22:16:23.639Z,16.00
2022-09-03T22:19:26.120Z,15.93
2022-09-03T22:22:43.847Z,15.97
2022-09-03T22:25:58.954Z,15.98
2022-09-03T22:29:11.716Z,15.92
2022-09-03T22:32:34.583Z,15.93
2022-09-03T22:36:02.773Z,15.88
2022-09-03T22:39:17.253Z,15.84
2022-09-03T22:42:44.864Z,15.88
2022-09-03T22:46:04.091Z,15.66
2022-09-03T22:49:25.022Z,15.69
2022-09-03T22:52:38.292Z,15.82
2022-09-03T22:55:49.031Z,15.78
2022-09-03T22:59:16.060Z,15.77
2022-09-03T23:02:23.681Z,15.56
2022-09-03T23:05:47.957Z,15.47
2022-09-03T23:09:00.180Z,15.48
2022-09-03T23:12:16.928Z,15.53
2022-09-03T23:15:26.190Z,15.65
2022-09-03T23:18:32.609Z,15.67
2022-09-03T23:21:41.117Z,15.71
2022-09-03T23:24:49.986Z,15.72
2022-09-03T23:28:02.856Z,15.63
2022-09-03T23:31:22.748Z,15.57
2022-09-03T23:34:26.205Z,15.49
2022-09-03T23:37:41.958Z,15.35
2022-09-03T23:40:51.948Z,15.28
2022-09-03T23:44:20.739Z,15.35
2022-09-03T23:48:03.739Z,15.40
2022-09-03T23:51:05.995Z,15.46
2022-09-03T23:54:37.966Z,15.47
2022-09-03T23:57:45.752Z,15.13
